createdAt,value
2018-09-04T00:01:12.411Z,17.00
2018-09-04T00:03:39.944Z,17.00
2018-09-04T00:06:07.665Z,17.00
2018-09-04T00:08:35.214Z,17.00
2018-09-04T00:11:02.734Z,17.00
2018-09-04T00:13:30.265Z,17.00
2018-09-04T00:15:57.774Z,17.00
2018-09-04T00:18:25.293Z,17.00
2018-09-04T00:20:52.810Z,16.90
2018-09-04T00:23:20.575Z,16.90
2018-09-04T00:25:48.104Z,16.80
2018-09-04T00:28:15.634Z,16.80
2018-09-04T00:30:43.158Z,16.70
2018-09-04T00:33:10.692Z,16.60
2018-09-04T00:35:38.227Z,16.60
2018-09-04T00:38:05.761Z,16.50
2018-09-04T00:40:33.289Z,16.40
2018-09-04T00:43:00.811Z,16.30
2018-09-04T00:45:28.361Z,16.30
2018-09-04T00:47:55.882Z,16.20
2018-09-04T00:50:23.420Z,16.20
2018-09-04T00:52:50.957Z,16.10
2018-09-04T00:55:18.492Z,16.10
2018-09-04T00:57:46.023Z,16.10
2018-09-04T01:00:13.557Z,16.00
2018-09-04T01:02:41.093Z,16.00
2018-09-04T01:05:08.634Z,16.00
2018-09-04T01:07:36.219Z,15.90
2018-09-04T01:10:03.808Z,15.90
2018-09-04T01:12:31.360Z,15.90
2018-09-04T01:14:58.912Z,15.80
2018-09-04T01:17:26.474Z,15.90
2018-09-04T01:19:54.010Z,15.90
2018-09-04T01:22:21.717Z,15.90
2018-09-04T01:24:49.279Z,15.80
2018-09-04T01:27:16.822Z,15.80
2018-09-04T01:29:44.355Z,15.70
2018-09-04T01:32:11.896Z,15.70
2018-09-04T01:34:39.561Z,15.70
2018-09-04T01:37:07.298Z,15.70
2018-09-04T01:39:34.835Z,15.60
2018-09-04T01:42:02.355Z,15.60
2018-09-04T01:44:29.908Z,15.60
2018-09-04T01:46:57.460Z,15.50
2018-09-04T01:49:25.022Z,15.50
2018-09-04T01:51:52.581Z,15.50
2018-09-04T01:54:20.128Z,15.50
2018-09-04T01:56:47.662Z,15.50
2018-09-04T01:59:15.208Z,15.50
2018-09-04T02:01:42.771Z,15.50
2018-09-04T02:04:10.326Z,15.50
2018-09-04T02:06:37.859Z,15.50
2018-09-04T02:09:06.015Z,15.50
2018-09-04T02:11:33.574Z,15.40
2018-09-04T02:14:01.110Z,15.40
2018-09-04T02:16:28.661Z,15.40
2018-09-04T02:18:56.224Z,15.30
2018-09-04T02:21:23.766Z,15.30
2018-09-04T02:23:51.317Z,15.20
2018-09-04T02:26:18.856Z,15.20
2018-09-04T02:28:46.404Z,15.20
2018-09-04T02:31:13.969Z,15.20
2018-09-04T02:33:41.506Z,15.20
2018-09-04T02:36:09.078Z,15.20
2018-09-04T02:38:36.633Z,15.10
2018-09-04T02:41:04.974Z,15.10
2018-09-04T02:43:32.514Z,15.20
2018-09-04T02:46:00.055Z,15.10
2018-09-04T02:48:27.583Z,15.10
2018-09-04T02:50:55.143Z,15.10
2018-09-04T02:53:22.674Z,15.10
2018-09-04T02:55:50.229Z,15.10
2018-09-04T02:58:17.828Z,15.10
2018-09-04T03:00:45.372Z,15.10
2018-09-04T03:03:12.906Z,15.10
2018-09-04T03:05:40.454Z,15.00
2018-09-04T03:08:07.978Z,15.00
2018-09-04T03:10:35.525Z,15.00
2018-09-04T03:13:03.090Z,15.00
2018-09-04T03:15:30.645Z,15.00
2018-09-04T03:17:58.176Z,15.00
2018-09-04T03:20:25.726Z,15.00
2018-09-04T03:22:53.489Z,15.00
2018-09-04T03:25:21.085Z,15.00
2018-09-04T03:27:48.645Z,15.00
2018-09-04T03:30:16.186Z,15.00
2018-09-04T03:32:50.284Z,15.00
2018-09-04T03:35:17.828Z,15.00
2018-09-04T03:37:45.347Z,15.00
2018-09-04T03:40:12.886Z,15.00
2018-09-04T03:42:40.735Z,14.90
2018-09-04T03:45:08.810Z,14.90
2018-09-04T03:47:36.457Z,14.80
2018-09-04T03:50:04.260Z,14.80
2018-09-04T03:52:31.809Z,14.80
2018-09-04T03:54:59.364Z,14.80
2018-09-04T03:57:26.916Z,14.80
2018-09-04T03:59:54.446Z,14.80
2018-09-04T04:02:21.989Z,14.80
2018-09-04T04:04:49.511Z,14.80
2018-09-04T04:07:17.101Z,14.90
2018-09-04T04:09:44.641Z,14.90
2018-09-04T04:12:12.201Z,14.90
2018-09-04T04:14:39.738Z,14.90
2018-09-04T04:17:07.314Z,14.90
2018-09-04T04:19:34.867Z,14.80
2018-09-04T04:22:02.416Z,14.80
2018-09-04T04:24:29.972Z,14.80
2018-09-04T04:26:57.511Z,14.70
2018-09-04T04:29:25.074Z,14.70
2018-09-04T04:31:52.608Z,14.80
2018-09-04T04:34:20.144Z,14.80
2018-09-04T04:36:47.690Z,14.80
2018-09-04T04:39:15.236Z,14.80
2018-09-04T04:41:42.782Z,14.90
2018-09-04T04:44:10.340Z,14.90
2018-09-04T04:46:37.874Z,14.90
2018-09-04T04:49:05.760Z,15.00
2018-09-04T04:51:33.306Z,15.10
2018-09-04T04:54:00.860Z,15.20
2018-09-04T04:56:28.543Z,15.20
2018-09-04T04:58:56.089Z,15.30
2018-09-04T05:01:23.649Z,15.40
2018-09-04T05:03:51.198Z,15.50
2018-09-04T05:06:18.759Z,15.60
2018-09-04T05:08:46.304Z,15.60
2018-09-04T05:11:13.860Z,15.70
2018-09-04T05:13:41.381Z,15.80
2018-09-04T05:16:08.927Z,15.90
2018-09-04T05:18:36.481Z,16.00
2018-09-04T05:21:04.055Z,16.10
2018-09-04T05:23:31.598Z,16.20
2018-09-04T05:25:59.128Z,16.30
2018-09-04T05:28:26.669Z,16.40
2018-09-04T05:30:54.252Z,16.60
2018-09-04T05:33:25.232Z,16.70
2018-09-04T05:35:54.453Z,16.70
2018-09-04T05:38:21.986Z,16.80
2018-09-04T05:40:49.543Z,16.90
2018-09-04T05:43:25.117Z,17.00
2018-09-04T05:45:53.497Z,17.20
2018-09-04T05:48:21.050Z,17.30
2018-09-04T05:50:48.594Z,17.40
2018-09-04T05:53:16.180Z,17.60
2018-09-04T05:55:43.742Z,17.70
2018-09-04T05:58:11.286Z,17.70
2018-09-04T06:00:42.938Z,17.70
2018-09-04T06:03:10.592Z,17.80
2018-09-04T06:05:38.152Z,17.90
2018-09-04T06:08:05.837Z,17.90
2018-09-04T06:10:33.383Z,17.90
2018-09-04T06:13:00.911Z,17.90
2018-09-04T06:15:28.471Z,18.00
2018-09-04T06:17:56.030Z,18.10
2018-09-04T06:20:23.616Z,18.10
2018-09-04T06:22:51.201Z,18.30
2018-09-04T06:25:18.783Z,18.40
2018-09-04T06:27:46.360Z,18.60
2018-09-04T06:30:14.296Z,18.80
2018-09-04T06:32:41.847Z,19.10
2018-09-04T06:35:09.482Z,19.30
2018-09-04T06:37:37.034Z,19.50
2018-09-04T06:40:04.727Z,19.80
2018-09-04T06:42:32.302Z,20.00
2018-09-04T06:44:59.888Z,20.30
2018-09-04T06:47:27.458Z,20.40
2018-09-04T06:49:55.027Z,20.40
2018-09-04T06:52:22.574Z,20.40
2018-09-04T06:54:50.106Z,20.50
2018-09-04T06:57:17.664Z,20.60
2018-09-04T06:59:45.218Z,20.70
2018-09-04T07:02:12.903Z,20.80
2018-09-04T07:04:40.616Z,20.90
2018-09-04T07:07:08.201Z,21.00
2018-09-04T07:09:35.749Z,21.10
2018-09-04T07:12:03.328Z,21.20
2018-09-04T07:14:30.894Z,21.30
2018-09-04T07:16:58.503Z,21.40
2018-09-04T07:19:26.003Z,21.60
2018-09-04T07:21:53.538Z,21.90
2018-09-04T07:24:21.189Z,22.10
2018-09-04T07:26:48.650Z,22.20
2018-09-04T07:29:16.196Z,22.30
2018-09-04T07:31:43.884Z,22.30
2018-09-04T07:34:11.424Z,22.40
2018-09-04T07:36:39.013Z,22.40
2018-09-04T07:39:08.894Z,22.60
2018-09-04T07:41:36.550Z,22.60
2018-09-04T07:44:04.062Z,22.70
2018-09-04T07:46:31.619Z,22.80
2018-09-04T07:48:59.159Z,22.90
2018-09-04T07:51:26.806Z,23.00
2018-09-04T07:53:54.401Z,23.20
2018-09-04T07:56:21.936Z,23.40
2018-09-04T07:58:49.483Z,23.50
2018-09-04T08:01:17.060Z,23.70
2018-09-04T08:03:44.617Z,23.80
2018-09-04T08:06:12.186Z,24.00
2018-09-04T08:08:39.737Z,24.10
2018-09-04T08:11:07.319Z,24.30
2018-09-04T08:13:34.869Z,24.80
2018-09-04T08:16:02.425Z,25.20
2018-09-04T08:18:29.984Z,25.50
2018-09-04T08:20:57.777Z,25.80
2018-09-04T08:23:25.308Z,26.20
2018-09-04T08:25:52.858Z,26.50
2018-09-04T08:28:20.404Z,26.80
2018-09-04T08:30:47.945Z,27.10
2018-09-04T08:33:15.548Z,27.30
2018-09-04T08:35:43.063Z,27.30
2018-09-04T08:38:10.639Z,27.30
2018-09-04T08:40:38.187Z,27.40
2018-09-04T08:43:06.239Z,27.60
2018-09-04T08:45:33.789Z,27.80
2018-09-04T08:48:02.435Z,27.90
2018-09-04T08:50:31.835Z,27.80
2018-09-04T08:52:59.421Z,27.70
2018-09-04T08:55:27.057Z,27.50
2018-09-04T08:57:54.542Z,27.30
2018-09-04T09:00:22.071Z,27.30
2018-09-04T09:02:49.630Z,27.10
2018-09-04T09:05:17.186Z,27.00
2018-09-04T09:07:44.737Z,27.00
2018-09-04T09:10:12.307Z,27.20
2018-09-04T09:12:39.831Z,27.50
2018-09-04T09:15:07.354Z,27.90
2018-09-04T09:17:34.878Z,28.10
2018-09-04T09:20:02.438Z,28.40
2018-09-04T09:22:29.981Z,28.80
2018-09-04T09:24:57.511Z,29.10
2018-09-04T09:27:25.047Z,29.10
2018-09-04T09:29:52.575Z,29.10
2018-09-04T09:32:20.103Z,29.30
2018-09-04T09:34:47.619Z,29.50
2018-09-04T09:37:15.145Z,29.70
2018-09-04T09:39:42.659Z,29.90
2018-09-04T09:42:12.034Z,30.10
2018-09-04T09:44:39.998Z,30.20
2018-09-04T09:47:07.537Z,30.20
2018-09-04T09:49:35.063Z,30.30
2018-09-04T09:52:02.579Z,30.50
2018-09-04T09:54:30.120Z,30.60
2018-09-04T09:56:57.797Z,30.70
2018-09-04T09:59:25.367Z,30.80
2018-09-04T10:01:58.791Z,30.80
2018-09-04T10:04:26.332Z,30.90
2018-09-04T10:06:53.941Z,31.10
2018-09-04T10:09:21.635Z,31.10
2018-09-04T10:11:49.250Z,31.20
2018-09-04T10:14:16.816Z,31.40
2018-09-04T10:16:44.405Z,31.40
2018-09-04T10:19:12.186Z,31.50
2018-09-04T10:21:39.746Z,31.40
2018-09-04T10:24:07.414Z,31.50
2018-09-04T10:26:35.098Z,31.70
2018-09-04T10:29:02.574Z,31.90
2018-09-04T10:31:30.133Z,32.10
2018-09-04T10:33:57.691Z,32.20
2018-09-04T10:36:25.361Z,32.20
2018-09-04T10:38:58.551Z,32.10
2018-09-04T10:41:26.129Z,32.20
2018-09-04T10:43:53.709Z,32.10
2018-09-04T10:46:21.254Z,32.00
2018-09-04T10:48:48.815Z,32.00
2018-09-04T10:51:16.358Z,32.00
2018-09-04T10:53:43.901Z,32.10
2018-09-04T10:56:11.459Z,31.90
2018-09-04T10:58:39.011Z,31.80
2018-09-04T11:01:06.575Z,31.80
2018-09-04T11:03:34.121Z,31.80
2018-09-04T11:06:01.681Z,32.00
2018-09-04T11:08:29.208Z,32.10
2018-09-04T11:10:56.749Z,32.40
2018-09-04T11:13:24.305Z,32.50
2018-09-04T11:15:53.333Z,32.20
2018-09-04T11:18:20.893Z,32.00
2018-09-04T11:20:48.424Z,32.00
2018-09-04T11:23:15.966Z,32.00
2018-09-04T11:25:43.508Z,31.50
2018-09-04T11:28:11.049Z,30.90
2018-09-04T11:30:38.622Z,30.30
2018-09-04T11:33:06.148Z,29.90
2018-09-04T11:35:33.697Z,30.10
2018-09-04T11:38:01.272Z,30.20
2018-09-04T11:40:28.811Z,30.00
2018-09-04T11:42:56.323Z,30.20
2018-09-04T11:45:23.864Z,30.20
2018-09-04T11:47:51.416Z,30.30
2018-09-04T11:50:18.939Z,30.70
2018-09-04T11:52:46.478Z,31.00
2018-09-04T11:55:14.014Z,31.10
2018-09-04T11:57:41.560Z,30.90
2018-09-04T12:00:14.655Z,30.50
2018-09-04T12:02:42.230Z,30.00
2018-09-04T12:05:09.758Z,29.70
2018-09-04T12:07:37.279Z,29.60
2018-09-04T12:10:05.906Z,29.60
2018-09-04T12:12:34.467Z,30.00
2018-09-04T12:15:01.851Z,30.70
2018-09-04T12:17:29.395Z,31.30
2018-09-04T12:21:03.336Z,31.50
2018-09-04T12:23:30.764Z,31.10
2018-09-04T12:25:59.468Z,30.20
2018-09-04T12:28:27.128Z,29.70
2018-09-04T12:30:55.188Z,29.20
2018-09-04T12:33:22.756Z,28.80
2018-09-04T12:35:50.292Z,28.90
2018-09-04T12:38:19.383Z,29.40
2018-09-04T12:40:47.386Z,29.90
2018-09-04T12:43:36.660Z,30.60
2018-09-04T12:46:04.644Z,31.10
2018-09-04T12:48:32.215Z,31.80
2018-09-04T12:51:01.073Z,32.30
2018-09-04T12:53:29.550Z,32.80
2018-09-04T12:55:57.097Z,33.20
2018-09-04T12:58:24.634Z,33.50
2018-09-04T13:00:53.142Z,33.60
2018-09-04T13:03:22.073Z,33.60
2018-09-04T13:05:49.631Z,33.50
2018-09-04T13:08:18.120Z,32.90
2018-09-04T13:10:45.670Z,32.20
2018-09-04T13:13:13.230Z,31.60
2018-09-04T13:15:42.428Z,31.20
2018-09-04T13:18:10.014Z,31.20
2018-09-04T13:20:37.565Z,31.30
2018-09-04T13:23:12.098Z,31.20
2018-09-04T13:25:39.656Z,30.90
2018-09-04T13:28:07.393Z,30.60
2018-09-04T13:30:34.960Z,30.40
2018-09-04T13:33:02.530Z,30.00
2018-09-04T13:35:30.081Z,29.70
2018-09-04T13:37:57.635Z,29.50
2018-09-04T13:40:25.233Z,29.30
2018-09-04T13:42:52.801Z,29.30
2018-09-04T13:45:21.411Z,29.60
2018-09-04T13:47:49.004Z,30.10
2018-09-04T13:50:16.597Z,30.60
2018-09-04T13:52:44.147Z,30.90
2018-09-04T13:55:11.699Z,31.10
2018-09-04T13:57:39.233Z,31.40
2018-09-04T14:00:08.140Z,31.50
2018-09-04T14:02:35.698Z,31.60
2018-09-04T14:05:03.325Z,31.80
2018-09-04T14:07:30.863Z,31.90
2018-09-04T14:09:58.417Z,31.80
2018-09-04T14:12:25.958Z,31.70
2018-09-04T14:14:53.487Z,31.60
2018-09-04T14:17:21.182Z,31.80
2018-09-04T14:19:48.717Z,32.10
2018-09-04T14:22:16.307Z,32.20
2018-09-04T14:24:43.878Z,32.50
2018-09-04T14:27:11.387Z,32.70
2018-09-04T14:30:16.241Z,32.80
2018-09-04T14:32:36.448Z,32.60
2018-09-04T14:35:05.117Z,32.40
2018-09-04T14:37:32.639Z,32.10
2018-09-04T14:40:00.165Z,31.90
2018-09-04T14:42:27.690Z,31.80
2018-09-04T14:44:55.257Z,31.90
2018-09-04T14:47:22.767Z,32.00
2018-09-04T14:49:50.300Z,32.20
2018-09-04T14:52:17.829Z,32.40
2018-09-04T14:54:46.351Z,32.40
2018-09-04T14:57:13.880Z,32.50
2018-09-04T14:59:41.417Z,32.50
2018-09-04T15:02:08.960Z,32.40
2018-09-04T15:04:36.482Z,32.30
2018-09-04T15:07:04.212Z,32.30
2018-09-04T15:09:31.755Z,32.20
2018-09-04T15:11:59.299Z,32.10
2018-09-04T15:14:26.844Z,32.00
2018-09-04T15:16:56.582Z,32.00
2018-09-04T15:19:24.134Z,32.10
2018-09-04T15:21:51.679Z,32.20
2018-09-04T15:24:19.240Z,32.20
2018-09-04T15:26:46.784Z,32.30
2018-09-04T15:29:14.343Z,32.30
2018-09-04T15:31:41.942Z,32.20
2018-09-04T15:34:09.457Z,32.00
2018-09-04T15:36:37.006Z,31.90
2018-09-04T15:39:06.313Z,31.90
2018-09-04T15:41:33.910Z,31.80
2018-09-04T15:44:01.472Z,31.60
2018-09-04T15:46:29.006Z,31.30
2018-09-04T15:49:02.274Z,30.90
2018-09-04T15:51:29.829Z,30.70
2018-09-04T15:53:57.350Z,30.40
2018-09-04T15:56:24.882Z,30.30
2018-09-04T15:58:52.405Z,30.10
2018-09-04T16:01:19.923Z,29.90
2018-09-04T16:03:47.448Z,29.80
2018-09-04T16:06:14.999Z,29.60
2018-09-04T16:08:42.583Z,29.30
2018-09-04T16:11:10.107Z,29.10
2018-09-04T16:13:37.649Z,28.90
2018-09-04T16:16:05.357Z,28.70
2018-09-04T16:18:32.918Z,28.50
2018-09-04T16:21:00.459Z,28.40
2018-09-04T16:23:28.009Z,28.30
2018-09-04T16:25:55.555Z,28.10
2018-09-04T16:28:23.105Z,27.90
2018-09-04T16:30:50.667Z,27.70
2018-09-04T16:33:18.223Z,27.50
2018-09-04T16:35:45.770Z,27.30
2018-09-04T16:38:13.302Z,27.30
2018-09-04T16:40:40.847Z,27.20
2018-09-04T16:43:08.387Z,27.10
2018-09-04T16:45:35.936Z,27.00
2018-09-04T16:48:03.520Z,26.90
2018-09-04T16:50:31.080Z,26.80
2018-09-04T16:52:58.602Z,26.70
2018-09-04T16:55:26.143Z,26.60
2018-09-04T16:57:53.702Z,26.50
2018-09-04T17:00:21.263Z,26.30
2018-09-04T17:02:48.826Z,26.00
2018-09-04T17:05:16.398Z,25.80
2018-09-04T17:07:43.978Z,25.60
2018-09-04T17:10:11.721Z,25.40
2018-09-04T17:12:39.276Z,25.30
2018-09-04T17:15:06.842Z,25.10
2018-09-04T17:17:34.370Z,24.80
2018-09-04T17:20:02.082Z,24.70
2018-09-04T17:22:29.611Z,24.40
2018-09-04T17:24:57.127Z,24.10
2018-09-04T17:27:24.681Z,23.80
2018-09-04T17:29:52.232Z,23.60
2018-09-04T17:32:19.829Z,23.40
2018-09-04T17:34:47.317Z,23.10
2018-09-04T17:37:14.869Z,22.90
2018-09-04T17:39:42.396Z,22.70
2018-09-04T17:42:09.937Z,22.50
2018-09-04T17:44:37.478Z,22.30
2018-09-04T17:47:05.220Z,22.10
2018-09-04T17:49:32.764Z,22.00
2018-09-04T17:52:00.300Z,21.80
2018-09-04T17:54:27.821Z,21.60
2018-09-04T17:56:55.350Z,21.50
2018-09-04T17:59:22.870Z,21.30
2018-09-04T18:01:50.449Z,21.20
2018-09-04T18:04:17.974Z,21.10
2018-09-04T18:06:45.542Z,20.90
2018-09-04T18:09:13.077Z,20.80
2018-09-04T18:11:40.636Z,20.70
2018-09-04T18:14:08.174Z,20.60
2018-09-04T18:16:35.727Z,20.50
2018-09-04T18:19:03.267Z,20.40
2018-09-04T18:21:30.839Z,20.30
2018-09-04T18:30:01.990Z,19.90
2018-09-04T18:32:29.694Z,19.80
2018-09-04T18:34:57.231Z,19.70
2018-09-04T18:37:24.784Z,19.70
2018-09-04T18:39:52.333Z,19.60
2018-09-04T18:42:19.913Z,19.60
2018-09-04T18:44:47.447Z,19.60
2018-09-04T18:47:14.998Z,19.50
2018-09-04T18:49:42.522Z,19.50
2018-09-04T18:52:10.073Z,19.50
2018-09-04T18:54:37.614Z,19.40
2018-09-04T18:57:05.185Z,19.30
2018-09-04T18:59:32.801Z,19.20
2018-09-04T19:02:00.294Z,19.10
2018-09-04T19:04:27.835Z,19.10
2018-09-04T19:06:55.431Z,19.00
2018-09-04T19:09:22.937Z,19.00
2018-09-04T19:11:50.502Z,18.90
2018-09-04T19:14:18.066Z,18.80
2018-09-04T19:16:45.589Z,18.80
2018-09-04T19:19:13.136Z,18.70
2018-09-04T19:21:40.671Z,18.60
2018-09-04T19:24:08.257Z,18.60
2018-09-04T19:26:35.758Z,18.60
2018-09-04T19:29:03.892Z,18.60
2018-09-04T19:31:31.493Z,18.60
2018-09-04T19:33:59.028Z,18.60
2018-09-04T19:36:26.576Z,18.60
2018-09-04T19:38:54.111Z,18.60
2018-09-04T19:41:21.647Z,18.60
2018-09-04T19:43:49.173Z,18.60
2018-09-04T19:46:16.721Z,18.60
2018-09-04T19:48:44.308Z,18.60
2018-09-04T19:51:11.813Z,18.70
2018-09-04T19:53:39.333Z,18.70
2018-09-04T19:56:06.866Z,18.80
2018-09-04T19:58:34.382Z,18.90
2018-09-04T20:01:01.930Z,19.00
2018-09-04T20:03:29.477Z,19.00
2018-09-04T20:05:57.123Z,19.10
2018-09-04T20:08:24.663Z,19.10
2018-09-04T20:10:52.178Z,19.20
2018-09-04T20:13:19.765Z,19.30
2018-09-04T20:15:47.275Z,19.30
2018-09-04T20:18:14.822Z,19.30
2018-09-04T20:20:42.342Z,19.30
2018-09-04T20:23:09.889Z,19.30
2018-09-04T20:25:37.427Z,19.20
2018-09-04T20:28:04.956Z,19.20
2018-09-04T20:30:32.542Z,19.10
2018-09-04T20:33:00.077Z,19.10
2018-09-04T20:35:27.687Z,19.00
2018-09-04T20:37:55.211Z,18.90
2018-09-04T20:40:22.745Z,18.80
2018-09-04T20:42:50.272Z,18.80
2018-09-04T20:45:17.804Z,18.70
2018-09-04T20:47:45.343Z,18.60
2018-09-04T20:50:12.875Z,18.50
2018-09-04T20:52:40.400Z,18.50
2018-09-04T20:55:07.927Z,18.40
2018-09-04T20:57:36.659Z,18.30
2018-09-04T21:00:25.320Z,18.20
2018-09-04T21:03:10.575Z,18.10
2018-09-04T21:05:55.801Z,18.10
2018-09-04T21:08:38.481Z,18.20
2018-09-04T21:11:06.666Z,18.30
2018-09-04T21:13:34.255Z,18.30
2018-09-04T21:16:01.807Z,18.30
2018-09-04T21:18:29.364Z,18.10
2018-09-04T21:21:22.559Z,18.00
2018-09-04T21:23:50.091Z,17.90
2018-09-04T21:26:17.623Z,17.70
2018-09-04T21:28:45.182Z,17.60
2018-09-04T21:31:12.736Z,17.50
2018-09-04T21:33:40.292Z,17.50
2018-09-04T21:36:07.848Z,17.40
2018-09-04T21:38:52.124Z,17.30
2018-09-04T21:41:19.695Z,17.20
2018-09-04T21:43:52.971Z,17.10
2018-09-04T21:46:32.548Z,17.10
2018-09-04T21:49:07.253Z,17.00
2018-09-04T21:51:34.825Z,16.90
2018-09-04T21:54:10.779Z,16.80
2018-09-04T21:56:38.310Z,16.80
2018-09-04T21:59:05.870Z,16.70
2018-09-04T22:01:39.388Z,16.60
2018-09-04T22:04:06.938Z,16.60
2018-09-04T22:06:34.475Z,16.50
2018-09-04T22:09:02.086Z,16.50
2018-09-04T22:11:29.653Z,16.40
2018-09-04T22:13:57.221Z,16.40
2018-09-04T22:16:24.765Z,16.30
2018-09-04T22:18:52.318Z,16.30
2018-09-04T22:21:19.850Z,16.20
2018-09-04T22:23:47.407Z,16.20
2018-09-04T22:26:14.969Z,16.20
2018-09-04T22:28:42.523Z,16.20
2018-09-04T22:31:20.137Z,16.20
2018-09-04T22:33:47.666Z,16.20
2018-09-04T22:36:15.213Z,16.20
2018-09-04T22:38:42.750Z,16.20
2018-09-04T22:41:10.309Z,16.20
2018-09-04T22:43:38.132Z,16.20
2018-09-04T22:46:06.201Z,16.20
2018-09-04T22:48:33.745Z,16.20
2018-09-04T22:51:06.936Z,16.10
2018-09-04T22:53:34.471Z,16.10
2018-09-04T22:56:02.033Z,16.10
2018-09-04T22:58:29.599Z,16.10
2018-09-04T23:00:57.149Z,16.00
2018-09-04T23:03:24.690Z,16.00
2018-09-04T23:05:54.360Z,15.90
2018-09-04T23:08:22.322Z,15.90
2018-09-04T23:10:49.826Z,15.90
2018-09-04T23:13:17.347Z,15.90
2018-09-04T23:15:44.863Z,15.90
2018-09-04T23:18:12.876Z,15.90
2018-09-04T23:20:40.735Z,15.90
2018-09-04T23:23:08.252Z,15.90
2018-09-04T23:25:35.776Z,15.90
2018-09-04T23:28:03.319Z,15.90
2018-09-04T23:30:30.872Z,15.90
2018-09-04T23:32:58.413Z,15.90
2018-09-04T23:35:26.005Z,15.90
2018-09-04T23:37:53.511Z,15.90
2018-09-04T23:40:21.054Z,15.80
2018-09-04T23:42:48.582Z,15.90
2018-09-04T23:45:16.120Z,15.80
2018-09-04T23:47:43.894Z,15.80
2018-09-04T23:50:11.412Z,15.80
2018-09-04T23:52:39.009Z,15.80
2018-09-04T23:55:06.553Z,15.80
2018-09-04T23:57:34.065Z,15.80
